Terminal Aerodrome Forecast
Issued by NWS

Home | Current Version | Previous Version | Text Only | Print | Product List | Glossary On
Versions: 1 2 3 4 5 6 7 8 9 10 11 12 13 14 15
000
FTUS43 KGRR 291741
TAFAZO
TAF
KAZO 291741Z 2918/3018 19010G18KT P6SM VCSH BKN040
     FM300000 19006KT P6SM OVC100
     FM301000 21005KT 5SM BR VCSH OVC035
     FM301200 24006KT 2SM -RA BR OVC007
     FM301700 27010KT 3SM -RA OVC009=

USA.gov is the U.S. government's official web portal to all federal, state and local government web resources and services.